Traskwood, Arkansas
Current Conditions -  °F | °C
As of 2:53 AM on Friday 19 Dec 2014 (Local Time) from KHOT Reporting Station
Overcast Overcast  
Wind Chill:   Ceiling: 400
Heat Index:   Visibility: 8mi
Dew Point:   Wind: 7mph
Humidity: 93%   Direction: 90°E
Pressure: 30.2"   Gusts: NA
Location:  34.45°N, 92.65°W
Report Text: KHOT 190853Z AUTO 09006KT 8SM OVC004 04/03 A3020 RMK AO2 SLP227 T00440033 55005
Loading
Personal Weather Stations






























Interactive Weather Map New forecast layout! Learn more

10-Day Weather Forecast

Advertisements
Track Severe Weather on mobile